Time;durP1;ratioP1;P1;durP2;ratioP2;P2;SDS_P1;SDS_P2;PMS_P1;PMS_P2;Temp;Humidity;BMP_temperature;BMP_pressure;BME280_temperature;BME280_humidity;BME280_pressure;Samples;Min_cycle;Max_cycle;Signal;HPM_P1;HPM_P2
2022/09/29 00:04:04;;;;;;;;;;;7.00;99.90;;;;;;5000434;28;19929;-84
2022/09/29 00:09:59;;;;;;;;;;;6.30;99.90;;;;;;5026253;28;19971;-84
2022/09/29 00:19:03;;;;;;;;;;;6.20;99.90;;;;;;5009356;28;19968;-83
2022/09/29 00:21:32;;;;;;;;;;;7.10;99.90;;;;;;4992828;28;19929;-81
2022/09/29 00:23:59;;;;;;;;;;;7.80;99.90;;;;;;4994098;28;19932;-81
2022/09/29 00:26:29;;;;;;;;;;;7.10;99.90;;;;;;5025057;28;19929;-83
2022/09/29 00:28:56;;;;;;;;;;;7.10;99.90;;;;;;5003560;28;20091;-82
2022/09/29 00:31:27;;;;;;;;;;;7.10;99.90;;;;;;5000845;28;19933;-82
2022/09/29 00:33:53;;;;;;;;;;;7.10;99.90;;;;;;4992343;28;19939;-83
2022/09/29 00:36:20;;;;;;;;;;;7.10;99.90;;;;;;5257597;23;19926;-83
2022/09/29 00:38:46;;;;;;;;;;;6.40;99.90;;;;;;5017403;28;20328;-83
2022/09/29 00:41:20;;;;;;;;;;;7.10;99.90;;;;;;5027870;28;19929;-82
2022/09/29 00:43:52;;;;;;;;;;;7.10;99.90;;;;;;5027294;28;19925;-82
2022/09/29 00:46:20;;;;;;;;;;;7.10;99.90;;;;;;5011553;28;20035;-82
2022/09/29 00:48:46;;;;;;;;;;;7.10;99.90;;;;;;5034933;28;19928;-84
2022/09/29 00:51:12;;;;;;;;;;;7.10;99.90;;;;;;4998831;28;20016;-83
2022/09/29 00:53:42;;;;;;;;;;;7.10;99.90;;;;;;5012330;28;20463;-83
2022/09/29 00:56:10;;;;;;;;;;;7.10;99.90;;;;;;5011157;28;20035;-83
2022/09/29 00:58:39;;;;;;;;;;;7.10;99.90;;;;;;5010306;28;20394;-83
2022/09/29 01:07:33;;;;;;;;;;;7.20;99.90;;;;;;5045440;28;19974;-84
2022/09/29 01:09:59;;;;;;;;;;;7.10;99.90;;;;;;4992851;28;19929;-85
2022/09/29 01:12:26;;;;;;;;;;;7.10;99.90;;;;;;5027179;28;19932;-83
2022/09/29 01:15:08;;;;;;;;;;;7.10;99.90;;;;;;5022237;28;19963;-84
2022/09/29 01:17:34;;;;;;;;;;;7.10;99.90;;;;;;5021009;28;19929;-84
2022/09/29 01:20:44;;;;;;;;;;;7.10;99.90;;;;;;5048522;28;20356;-82
2022/09/29 01:23:35;;;;;;;;;;;6.20;99.90;;;;;;5042963;28;19980;-81
2022/09/29 01:26:30;;;;;;;;;;;7.80;99.90;;;;;;5034992;28;19976;-83
2022/09/29 01:29:01;;;;;;;;;;;7.50;99.90;;;;;;5032575;28;19933;-81
2022/09/29 01:31:42;;;;;;;;;;;7.10;99.90;;;;;;5036763;28;20337;-84
2022/09/29 01:34:12;;;;;;;;;;;7.10;99.90;;;;;;5022257;28;19975;-84
2022/09/29 01:36:44;;;;;;;;;;;7.10;99.90;;;;;;5021223;28;19939;-82
2022/09/29 01:39:23;;;;;;;;;;;7.10;99.90;;;;;;5011800;28;19925;-83
2022/09/29 01:44:33;;;;;;;;;;;7.10;99.90;;;;;;5076223;22;20288;-82
2022/09/29 01:47:08;;;;;;;;;;;7.10;99.90;;;;;;5013106;28;19925;-81
2022/09/29 01:49:39;;;;;;;;;;;7.00;99.90;;;;;;5013831;28;19925;-81
2022/09/29 01:52:09;;;;;;;;;;;7.00;99.90;;;;;;5007655;28;19939;-82
2022/09/29 01:54:44;;;;;;;;;;;7.00;99.90;;;;;;4999870;28;19932;-82
2022/09/29 01:57:16;;;;;;;;;;;6.90;99.90;;;;;;5010162;28;19926;-83
2022/09/29 01:59:48;;;;;;;;;;;7.40;99.90;;;;;;5015735;28;19925;-81
2022/09/29 02:02:16;;;;;;;;;;;6.90;99.90;;;;;;5007007;28;20032;-82
2022/09/29 02:05:02;;;;;;;;;;;7.20;99.90;;;;;;5006315;28;19929;-80
2022/09/29 08:30:53;;;;;;;;;;;12.80;99.90;;;;;;5007099;28;19937;-79
2022/09/29 08:33:19;;;;;;;;;;;12.80;99.90;;;;;;4949387;28;19930;-78
2022/09/29 08:35:45;;;;;;;;;;;12.70;99.90;;;;;;4990124;28;19929;-78
2022/09/29 08:38:11;;;;;;;;;;;12.70;99.90;;;;;;4986575;28;19929;-77
2022/09/29 08:40:37;;;;;;;;;;;13.00;99.90;;;;;;4969928;28;19937;-77
2022/09/29 08:43:05;;;;;;;;;;;12.90;99.90;;;;;;4976042;28;20003;-76
2022/09/29 08:45:35;;;;;;;;;;;13.00;99.90;;;;;;4988915;28;19979;-78
2022/09/29 08:48:07;;;;;;;;;;;13.10;99.90;;;;;;4993247;28;19925;-77
2022/09/29 08:50:41;;;;;;;;;;;13.10;99.90;;;;;;5002952;28;19976;-77
2022/09/29 08:53:09;;;;;;;;;;;13.20;99.90;;;;;;4964324;28;19936;-76
2022/09/29 08:55:35;;;;;;;;;;;13.20;99.90;;;;;;5002921;28;20335;-77
2022/09/29 08:58:00;;;;;;;;;;;13.30;99.90;;;;;;4990259;28;19932;-78
2022/09/29 09:00:27;;;;;;;;;;;;;;;;;;4970897;28;20045;-77
2022/09/29 09:02:53;;;;;;;;;;;;;;;;;;4967950;28;19932;-76
2022/09/29 09:05:19;;;;;;;;;;;;;;;;;;4990317;28;19986;-77
2022/09/29 09:07:45;;;;;;;;;;;;;;;;;;4987747;28;19943;-76
2022/09/29 09:10:11;;;;;;;;;;;;;;;;;;4971232;28;19930;-78
2022/09/29 09:12:45;;;;;;;;;;;14.20;99.90;;;;;;4990636;28;19935;-76
2022/09/29 09:15:20;;;;;;;;;;;14.20;99.90;;;;;;4970224;28;19992;-77
2022/09/29 09:18:01;;;;;;;;;;;14.20;99.90;;;;;;4986870;28;19925;-78
2022/09/29 09:20:26;;;;;;;;;;;14.50;99.90;;;;;;4968313;28;20012;-77
2022/09/29 09:22:57;;;;;;;;;;;14.30;99.90;;;;;;4971006;28;20443;-78
2022/09/29 09:25:27;;;;;;;;;;;14.40;99.90;;;;;;4986960;28;20000;-78
2022/09/29 09:28:15;;;;;;;;;;;14.40;99.90;;;;;;5008278;28;19925;-77
2022/09/29 09:30:44;;;;;;;;;;;14.40;99.90;;;;;;4971689;28;20429;-78
2022/09/29 09:33:25;;;;;;;;;;;14.40;99.90;;;;;;4951752;28;19963;-80
2022/09/29 09:35:52;;;;;;;;;;;14.50;99.90;;;;;;4963451;28;19938;-77
2022/09/29 09:38:20;;;;;;;;;;;14.40;99.90;;;;;;4972524;28;19944;-78
2022/09/29 09:40:49;;;;;;;;;;;14.40;99.90;;;;;;4950603;28;19937;-79
2022/09/29 09:43:35;;;;;;;;;;;14.30;99.90;;;;;;4966612;28;19988;-78
2022/09/29 09:46:07;;;;;;;;;;;14.30;99.90;;;;;;4967473;28;20548;-77
2022/09/29 09:48:54;;;;;;;;;;;14.30;99.90;;;;;;4951037;28;19944;-77
2022/09/29 09:51:39;;;;;;;;;;;14.40;99.90;;;;;;4955766;28;19925;-77
2022/09/29 09:54:10;;;;;;;;;;;14.50;99.90;;;;;;4950632;28;19936;-78
2022/09/29 09:56:59;;;;;;;;;;;14.50;99.90;;;;;;4983102;28;19928;-77
2022/09/29 09:59:34;;;;;;;;;;;14.60;99.90;;;;;;4962457;28;20370;-78
2022/09/29 10:02:00;;;;;;;;;;;14.70;99.90;;;;;;4967327;28;19980;-77
2022/09/29 10:04:26;;;;;;;;;;;14.70;99.90;;;;;;4967137;28;19972;-77
2022/09/29 10:06:52;;;;;;;;;;;14.80;99.90;;;;;;4985895;28;19936;-78
2022/09/29 10:09:18;;;;;;;;;;;14.90;99.90;;;;;;4970917;28;19938;-78
2022/09/29 10:11:44;;;;;;;;;;;15.10;99.90;;;;;;4949490;28;19937;-76
2022/09/29 10:14:15;;;;;;;;;;;14.90;99.90;;;;;;4967273;28;19969;-77
2022/09/29 10:16:49;;;;;;;;;;;15.10;99.90;;;;;;4969373;28;19956;-77
2022/09/29 10:19:20;;;;;;;;;;;15.00;99.90;;;;;;4967218;28;19937;-77
2022/09/29 10:21:45;;;;;;;;;;;15.10;99.90;;;;;;4969810;28;20299;-76
2022/09/29 10:24:20;;;;;;;;;;;15.10;99.90;;;;;;4951345;28;19930;-77
2022/09/29 10:26:47;;;;;;;;;;;15.00;99.90;;;;;;4965560;28;19929;-77
2022/09/29 10:29:31;;;;;;;;;;;14.90;99.90;;;;;;4969477;28;19926;-76
2022/09/29 10:31:59;;;;;;;;;;;14.70;99.90;;;;;;4986718;28;19930;-76
2022/09/29 10:34:25;;;;;;;;;;;14.70;99.90;;;;;;4991822;28;19929;-76
2022/09/29 10:36:52;;;;;;;;;;;14.80;99.90;;;;;;4974617;28;19936;-75
2022/09/29 10:39:37;;;;;;;;;;;15.30;99.90;;;;;;4992273;28;19981;-77
2022/09/29 10:42:26;;;;;;;;;;;14.90;99.90;;;;;;4992060;28;19928;-77
2022/09/29 10:45:01;;;;;;;;;;;14.90;99.90;;;;;;4994741;28;19925;-78
2022/09/29 10:47:27;;;;;;;;;;;15.00;99.90;;;;;;5002464;28;19929;-77
2022/09/29 10:50:13;;;;;;;;;;;15.00;99.90;;;;;;4981893;28;19930;-76
2022/09/29 10:52:43;;;;;;;;;;;15.00;99.90;;;;;;4997613;28;20533;-77
2022/09/29 10:55:20;;;;;;;;;;;15.00;99.90;;;;;;4992316;28;19968;-78
2022/09/29 10:57:49;;;;;;;;;;;14.80;99.90;;;;;;4982749;28;19976;-77
2022/09/29 11:00:30;;;;;;;;;;;14.70;99.90;;;;;;5005815;28;20011;-77
2022/09/29 11:03:16;;;;;;;;;;;14.60;99.90;;;;;;4993701;28;20493;-77
2022/09/29 11:06:00;;;;;;;;;;;14.50;99.90;;;;;;5010265;28;19929;-78
2022/09/29 11:08:26;;;;;;;;;;;14.40;99.90;;;;;;4985217;28;19942;-78
2022/09/29 11:11:06;;;;;;;;;;;14.40;99.90;;;;;;4972646;28;19968;-77
2022/09/29 11:13:36;;;;;;;;;;;14.40;99.90;;;;;;5008883;28;20406;-78
2022/09/29 11:16:11;;;;;;;;;;;14.60;99.90;;;;;;4990148;28;19929;-78
2022/09/29 11:18:38;;;;;;;;;;;14.50;99.90;;;;;;4991125;28;20296;-78
2022/09/29 11:21:04;;;;;;;;;;;14.50;99.90;;;;;;4994285;28;20003;-77
2022/09/29 11:23:35;;;;;;;;;;;14.60;99.90;;;;;;4974042;28;20416;-78
2022/09/29 11:26:10;;;;;;;;;;;14.50;99.90;;;;;;4979387;28;20526;-77
2022/09/29 11:28:56;;;;;;;;;;;14.60;99.90;;;;;;4992548;28;19933;-79
2022/09/29 11:31:29;;;;;;;;;;;14.90;99.90;;;;;;4981141;28;20697;-79
2022/09/29 11:34:04;;;;;;;;;;;15.00;99.90;;;;;;4985177;28;19968;-76
2022/09/29 11:36:44;;;;;;;;;;;15.50;99.90;;;;;;4971316;28;19933;-77
2022/09/29 11:39:10;;;;;;;;;;;15.00;99.90;;;;;;5012983;28;19986;-77
2022/09/29 11:41:39;;;;;;;;;;;14.70;99.90;;;;;;4987831;28;19933;-76
2022/09/29 11:44:27;;;;;;;;;;;14.50;99.90;;;;;;4986966;28;19929;-77
2022/09/29 11:46:53;;;;;;;;;;;;;;;;;;4996204;28;19926;-77
2022/09/29 11:49:38;;;;;;;;;;;14.20;99.90;;;;;;5001399;28;19952;-77
2022/09/29 11:52:11;;;;;;;;;;;14.10;99.90;;;;;;5003279;28;20011;-78
2022/09/29 11:54:46;;;;;;;;;;;14.00;99.90;;;;;;4986618;28;19925;-77
2022/09/29 11:57:12;;;;;;;;;;;13.90;99.90;;;;;;4976947;28;19929;-78
2022/09/29 11:59:38;;;;;;;;;;;14.00;99.90;;;;;;4996110;28;19933;-78
2022/09/29 12:02:04;;;;;;;;;;;14.20;99.90;;;;;;4982600;28;19929;-77
2022/09/29 12:04:38;;;;;;;;;;;14.40;99.90;;;;;;5004255;28;19933;-77
2022/09/29 12:07:12;;;;;;;;;;;14.60;99.90;;;;;;4991523;28;20020;-76
2022/09/29 12:09:41;;;;;;;;;;;14.80;99.90;;;;;;4990764;28;19925;-78
2022/09/29 12:12:07;;;;;;;;;;;;;;;;;;4997110;28;19925;-78
2022/09/29 12:14:34;;;;;;;;;;;14.80;99.90;;;;;;5002698;28;19932;-77
2022/09/29 12:17:04;;;;;;;;;;;14.90;99.90;;;;;;4985250;28;20923;-78
2022/09/29 12:19:32;;;;;;;;;;;14.90;99.90;;;;;;5001334;28;20351;-77
2022/09/29 12:22:00;;;;;;;;;;;14.90;99.90;;;;;;5011969;28;19948;-79
2022/09/29 12:24:35;;;;;;;;;;;14.80;99.90;;;;;;4985080;28;19936;-78
2022/09/29 12:27:03;;;;;;;;;;;14.70;99.90;;;;;;4986666;28;19933;-78
2022/09/29 12:29:32;;;;;;;;;;;14.60;99.90;;;;;;4987513;28;20019;-79
2022/09/29 12:31:59;;;;;;;;;;;14.50;99.90;;;;;;4999687;28;19933;-77
2022/09/29 12:34:38;;;;;;;;;;;14.40;99.90;;;;;;4984007;28;19968;-78
2022/09/29 12:37:06;;;;;;;;;;;14.40;99.90;;;;;;4985769;28;19952;-78
2022/09/29 12:39:51;;;;;;;;;;;14.20;99.90;;;;;;4983692;28;19999;-79
2022/09/29 12:42:32;;;;;;;;;;;14.20;99.90;;;;;;5002261;28;19961;-78
2022/09/29 12:45:05;;;;;;;;;;;14.10;99.90;;;;;;4981865;28;19981;-80
2022/09/29 12:47:37;;;;;;;;;;;14.10;99.90;;;;;;5004430;28;19986;-78
2022/09/29 12:50:13;;;;;;;;;;;14.10;99.90;;;;;;4986828;28;19933;-78
2022/09/29 12:52:54;;;;;;;;;;;14.10;99.90;;;;;;5001583;28;19926;-78
2022/09/29 12:55:30;;;;;;;;;;;14.00;99.90;;;;;;5003644;28;19932;-79
2022/09/29 12:57:58;;;;;;;;;;;14.00;99.90;;;;;;5000564;28;20551;-78
2022/09/29 13:00:24;;;;;;;;;;;14.00;99.90;;;;;;5004665;28;19980;-78
2022/09/29 13:03:00;;;;;;;;;;;13.90;99.90;;;;;;4987300;28;19925;-79
2022/09/29 13:05:52;;;;;;;;;;;13.90;99.90;;;;;;4983742;28;19935;-77
2022/09/29 13:08:39;;;;;;;;;;;13.80;99.90;;;;;;4982945;28;20336;-78
2022/09/29 13:11:16;;;;;;;;;;;13.70;99.90;;;;;;4984716;28;19955;-80
2022/09/29 13:13:55;;;;;;;;;;;13.70;99.90;;;;;;4983839;28;19925;-79
2022/09/29 13:16:30;;;;;;;;;;;13.60;99.90;;;;;;4981319;28;20012;-78
2022/09/29 13:19:05;;;;;;;;;;;13.50;99.90;;;;;;4981553;28;19929;-77
2022/09/29 13:21:31;;;;;;;;;;;13.50;99.90;;;;;;4986953;28;19937;-78
2022/09/29 13:23:57;;;;;;;;;;;13.50;99.90;;;;;;4983988;28;19942;-77
2022/09/29 13:26:23;;;;;;;;;;;13.50;99.90;;;;;;4985809;28;19955;-78
2022/09/29 13:29:12;;;;;;;;;;;13.50;99.90;;;;;;4986709;28;19933;-78
2022/09/29 13:32:04;;;;;;;;;;;13.60;99.90;;;;;;4980062;28;19925;-77
2022/09/29 13:35:02;;;;;;;;;;;13.70;99.90;;;;;;4961237;28;20113;-78
2022/09/29 13:38:01;;;;;;;;;;;13.70;99.90;;;;;;4982176;28;19999;-77
2022/09/29 13:40:28;;;;;;;;;;;13.80;99.90;;;;;;4949532;28;19934;-76
2022/09/29 13:42:58;;;;;;;;;;;13.90;99.90;;;;;;4968998;28;19926;-78
2022/09/29 13:45:24;;;;;;;;;;;14.00;99.90;;;;;;4972635;28;19925;-78
2022/09/29 13:47:52;;;;;;;;;;;14.10;99.90;;;;;;4948874;28;19925;-78
2022/09/29 13:50:36;;;;;;;;;;;14.10;99.90;;;;;;4972519;28;19925;-84
2022/09/29 13:53:32;;;;;;;;;;;14.20;99.90;;;;;;4976023;28;19940;-84
2022/09/29 13:56:01;;;;;;;;;;;14.20;99.90;;;;;;4991697;28;19940;-84
2022/09/29 13:58:27;;;;;;;;;;;14.30;99.90;;;;;;4967610;28;20587;-87
2022/09/29 14:00:54;;;;;;;;;;;14.40;99.90;;;;;;4969690;28;20300;-81
2022/09/29 14:03:33;;;;;;;;;;;14.40;99.90;;;;;;4932400;28;19926;-86
2022/09/29 14:06:15;;;;;;;;;;;14.40;99.90;;;;;;4971031;28;19934;-83
2022/09/29 14:08:47;;;;;;;;;;;14.40;99.90;;;;;;4990241;28;20547;-83
2022/09/29 14:11:29;;;;;;;;;;;14.40;99.90;;;;;;4976661;28;19931;-85
2022/09/29 14:14:13;;;;;;;;;;;14.30;99.90;;;;;;4965129;28;19933;-80
2022/09/29 14:16:57;;;;;;;;;;;14.20;99.90;;;;;;4949208;28;19984;-80
2022/09/29 14:19:23;;;;;;;;;;;14.10;99.90;;;;;;4967214;28;19925;-82
2022/09/29 14:21:50;;;;;;;;;;;14.10;99.90;;;;;;4973115;28;19936;-80
2022/09/29 14:24:41;;;;;;;;;;;14.00;99.90;;;;;;4973680;28;19934;-80
2022/09/29 14:27:13;;;;;;;;;;;14.00;99.90;;;;;;4969590;28;20436;-85
2022/09/29 14:29:42;;;;;;;;;;;13.90;99.90;;;;;;4993333;28;20357;-83
2022/09/29 14:32:16;;;;;;;;;;;13.80;99.90;;;;;;4986225;28;19992;-81
2022/09/29 14:34:44;;;;;;;;;;;13.70;99.90;;;;;;4974451;28;19921;-80
2022/09/29 14:37:16;;;;;;;;;;;13.70;99.90;;;;;;4989881;28;20008;-80
2022/09/29 14:40:26;;;;;;;;;;;13.70;99.90;;;;;;4986723;28;19961;-81
2022/09/29 14:42:28;;;;;;;;;;;13.70;99.90;;;;;;4987538;28;20537;-81
2022/09/29 14:53:48;;;;;;;;;;;13.60;99.90;;;;;;4984565;28;19976;-84
2022/09/29 14:56:20;;;;;;;;;;;13.60;99.90;;;;;;4987853;28;19939;-80
2022/09/29 14:59:08;;;;;;;;;;;13.60;99.90;;;;;;4971526;28;20063;-81
2022/09/29 15:01:37;;;;;;;;;;;13.60;99.90;;;;;;4988425;28;20493;-83
2022/09/29 15:04:05;;;;;;;;;;;13.50;99.90;;;;;;4988424;28;20037;-81
2022/09/29 15:06:31;;;;;;;;;;;13.50;99.90;;;;;;4985280;28;19929;-82
2022/09/29 15:08:59;;;;;;;;;;;13.40;99.90;;;;;;4972303;28;19929;-81
2022/09/29 15:11:36;;;;;;;;;;;13.60;99.90;;;;;;4986392;28;19929;-81
2022/09/29 15:14:20;;;;;;;;;;;13.30;99.90;;;;;;4979345;28;19961;-84
2022/09/29 15:16:47;;;;;;;;;;;13.30;99.90;;;;;;5006606;28;19980;-82
2022/09/29 15:19:22;;;;;;;;;;;13.60;99.90;;;;;;4991093;28;19925;-80
2022/09/29 15:22:06;;;;;;;;;;;13.30;99.90;;;;;;4989750;28;19925;-82
2022/09/29 15:24:44;;;;;;;;;;;13.20;99.90;;;;;;4988328;28;20029;-81
2022/09/29 15:27:12;;;;;;;;;;;13.50;99.90;;;;;;4985675;28;19921;-80
2022/09/29 15:29:38;;;;;;;;;;;;;;;;;;5006000;28;19926;-81
2022/09/29 15:32:04;;;;;;;;;;;;;;;;;;4974561;28;20012;-80
2022/09/29 15:34:30;;;;;;;;;;;;;;;;;;4988107;28;20020;-80
2022/09/29 15:36:56;;;;;;;;;;;;;;;;;;5008902;28;19936;-81
2022/09/29 15:39:22;;;;;;;;;;;;;;;;;;4982670;28;19933;-81
2022/09/29 15:41:48;;;;;;;;;;;;;;;;;;4988199;28;20779;-79
2022/09/29 15:44:16;;;;;;;;;;;;;;;;;;5000878;28;20280;-80
2022/09/29 15:46:43;;;;;;;;;;;;;;;;;;4970454;28;20065;-82
2022/09/29 15:49:09;;;;;;;;;;;;;;;;;;4987436;28;19925;-80
2022/09/29 15:51:35;;;;;;;;;;;;;;;;;;4982338;28;19932;-84
2022/09/29 15:54:10;;;;;;;;;;;13.30;99.90;;;;;;4986170;28;19961;-81
2022/09/29 15:57:41;;;;;;;;;;;13.00;99.90;;;;;;4970189;28;20063;-81
2022/09/29 15:59:41;;;;;;;;;;;12.90;99.90;;;;;;4998328;28;19933;-82
2022/09/29 16:02:13;;;;;;;;;;;12.90;99.90;;;;;;4962855;28;19929;-82
2022/09/29 16:04:43;;;;;;;;;;;12.90;99.90;;;;;;4984172;28;20221;-83
2022/09/29 16:07:18;;;;;;;;;;;12.90;99.90;;;;;;4981242;28;19926;-83
2022/09/29 16:09:43;;;;;;;;;;;12.90;99.90;;;;;;4987009;28;20494;-81
2022/09/29 16:12:12;;;;;;;;;;;12.90;99.90;;;;;;4966106;28;19991;-82
2022/09/29 16:14:38;;;;;;;;;;;12.80;99.90;;;;;;4982261;28;20620;-81
2022/09/29 16:17:07;;;;;;;;;;;12.80;99.90;;;;;;4997767;28;19932;-82
2022/09/29 16:19:33;;;;;;;;;;;12.80;99.90;;;;;;4965836;28;20425;-83
2022/09/29 16:22:00;;;;;;;;;;;12.80;99.90;;;;;;4984293;28;19971;-83
2022/09/29 16:24:31;;;;;;;;;;;13.00;99.90;;;;;;4966967;28;20020;-83
2022/09/29 16:26:58;;;;;;;;;;;12.80;99.90;;;;;;4998639;28;19948;-84
2022/09/29 16:29:25;;;;;;;;;;;12.60;99.90;;;;;;4971903;28;20329;-82
2022/09/29 16:31:52;;;;;;;;;;;13.00;99.90;;;;;;4976829;28;19944;-84
2022/09/29 16:34:20;;;;;;;;;;;13.00;99.90;;;;;;4980374;28;19921;-83
2022/09/29 16:36:50;;;;;;;;;;;12.70;99.90;;;;;;4987912;28;19929;-82
2022/09/29 16:39:17;;;;;;;;;;;12.80;99.90;;;;;;4950462;28;19926;-80
2022/09/29 16:41:46;;;;;;;;;;;12.80;99.90;;;;;;4977017;28;19938;-81
2022/09/29 16:44:16;;;;;;;;;;;12.70;99.90;;;;;;4972720;28;20029;-81
2022/09/29 16:46:45;;;;;;;;;;;12.70;99.90;;;;;;4981035;28;19987;-80
2022/09/29 16:49:21;;;;;;;;;;;12.70;99.90;;;;;;4982091;28;20033;-85
2022/09/29 16:51:47;;;;;;;;;;;12.80;99.90;;;;;;4961902;28;19938;-84
2022/09/29 16:54:28;;;;;;;;;;;12.70;99.90;;;;;;4975134;28;19945;-81
2022/09/29 16:57:20;;;;;;;;;;;12.70;99.90;;;;;;4968412;28;19969;-83
2022/09/29 16:59:47;;;;;;;;;;;12.80;99.90;;;;;;4980851;28;19926;-83
2022/09/29 17:02:13;;;;;;;;;;;12.60;99.90;;;;;;4969422;28;19926;-82
2022/09/29 17:04:38;;;;;;;;;;;12.60;99.90;;;;;;4941761;28;19940;-84
2022/09/29 17:07:05;;;;;;;;;;;12.60;99.90;;;;;;4970646;28;19933;-86
2022/09/29 17:09:30;;;;;;;;;;;12.60;99.90;;;;;;4946626;28;20476;-85
2022/09/29 17:11:58;;;;;;;;;;;12.60;99.90;;;;;;4967412;28;20025;-84
2022/09/29 17:14:23;;;;;;;;;;;12.50;99.90;;;;;;4950239;28;19964;-85
2022/09/29 17:16:50;;;;;;;;;;;12.30;99.90;;;;;;4947731;28;19938;-83
2022/09/29 17:19:16;;;;;;;;;;;12.40;99.90;;;;;;4970213;28;20517;-83
2022/09/29 17:21:42;;;;;;;;;;;12.30;99.90;;;;;;4952971;28;20176;-83
2022/09/29 17:24:08;;;;;;;;;;;12.50;99.90;;;;;;4971331;28;19940;-82
2022/09/29 17:29:22;;;;;;;;;;;12.20;99.90;;;;;;4967245;28;20047;-82
2022/09/29 17:31:47;;;;;;;;;;;12.10;99.90;;;;;;4961821;28;20067;-81
2022/09/29 17:34:13;;;;;;;;;;;11.90;99.90;;;;;;4983756;28;19948;-81
2022/09/29 17:36:39;;;;;;;;;;;12.00;99.90;;;;;;4996476;28;19948;-82
2022/09/29 17:39:05;;;;;;;;;;;12.00;99.90;;;;;;4992370;28;20348;-81
2022/09/29 17:41:31;;;;;;;;;;;12.00;99.90;;;;;;4990644;28;19925;-81
2022/09/29 17:43:57;;;;;;;;;;;12.00;99.90;;;;;;4999803;28;19940;-82
2022/09/29 17:46:22;;;;;;;;;;;12.00;99.90;;;;;;4974926;28;19945;-82
2022/09/29 17:48:49;;;;;;;;;;;12.00;99.90;;;;;;4972979;28;20574;-81
2022/09/29 17:51:20;;;;;;;;;;;11.90;99.90;;;;;;4969849;28;19934;-88
2022/09/29 17:53:47;;;;;;;;;;;11.90;99.90;;;;;;4979597;28;19949;-85
2022/09/29 17:56:21;;;;;;;;;;;11.90;99.90;;;;;;4987540;28;19930;-85
2022/09/29 17:58:48;;;;;;;;;;;12.00;99.90;;;;;;4975985;28;19929;-88
2022/09/29 18:01:18;;;;;;;;;;;11.50;99.90;;;;;;4987676;28;20337;-85
2022/09/29 18:03:45;;;;;;;;;;;11.90;99.90;;;;;;4999124;28;19991;-86
2022/09/29 18:06:18;;;;;;;;;;;13.40;99.90;;;;;;4974250;28;19929;-88
2022/09/29 18:08:44;;;;;;;;;;;11.70;99.90;;;;;;4998071;28;19925;-88
2022/09/29 18:11:10;;;;;;;;;;;11.70;99.90;;;;;;4971840;28;20404;-87
2022/09/29 18:13:36;;;;;;;;;;;11.60;99.90;;;;;;4985000;28;20545;-86
2022/09/29 18:16:02;;;;;;;;;;;11.80;99.90;;;;;;4986345;28;19976;-85
2022/09/29 18:18:28;;;;;;;;;;;11.60;99.90;;;;;;4997718;28;20332;-83
2022/09/29 18:20:54;;;;;;;;;;;11.50;99.90;;;;;;4963884;28;19926;-85
2022/09/29 18:23:21;;;;;;;;;;;11.40;99.90;;;;;;4984358;28;19929;-82
2022/09/29 18:25:49;;;;;;;;;;;11.40;99.90;;;;;;4980722;28;20408;-83
2022/09/29 18:28:17;;;;;;;;;;;11.40;99.90;;;;;;4983509;28;20337;-85
2022/09/29 18:30:44;;;;;;;;;;;11.30;99.90;;;;;;4972823;28;19929;-85
2022/09/29 18:33:12;;;;;;;;;;;11.30;99.90;;;;;;4995573;28;20001;-82
2022/09/29 18:35:42;;;;;;;;;;;11.30;99.90;;;;;;4999893;28;19937;-84
2022/09/29 18:38:08;;;;;;;;;;;11.30;99.90;;;;;;4988743;28;19937;-86
2022/09/29 18:40:34;;;;;;;;;;;11.10;99.90;;;;;;4996298;28;20053;-86
2022/09/29 18:43:00;;;;;;;;;;;11.10;99.90;;;;;;4993364;28;20354;-88
2022/09/29 18:45:28;;;;;;;;;;;11.10;99.90;;;;;;4975447;28;20018;-83
2022/09/29 18:47:58;;;;;;;;;;;11.10;99.90;;;;;;5008536;28;20380;-82
2022/09/29 18:50:26;;;;;;;;;;;10.20;99.90;;;;;;4981484;28;20007;-86
2022/09/29 18:52:52;;;;;;;;;;;11.00;99.90;;;;;;4990658;28;19937;-84
2022/09/29 18:55:22;;;;;;;;;;;10.90;99.90;;;;;;4987053;28;19940;-82
2022/09/29 18:57:48;;;;;;;;;;;10.90;99.90;;;;;;4971667;28;20348;-82
2022/09/29 19:00:15;;;;;;;;;;;10.90;99.90;;;;;;4997768;28;20032;-82
2022/09/29 19:02:41;;;;;;;;;;;10.90;99.90;;;;;;4995644;28;20357;-81
2022/09/29 19:05:11;;;;;;;;;;;10.80;99.90;;;;;;4972864;28;20306;-82
2022/09/29 19:07:37;;;;;;;;;;;10.80;99.90;;;;;;4993351;28;19933;-82
2022/09/29 19:10:03;;;;;;;;;;;10.60;99.90;;;;;;4947466;28;19934;-84
2022/09/29 19:12:30;;;;;;;;;;;10.80;99.90;;;;;;4984688;28;20393;-82
2022/09/29 19:14:58;;;;;;;;;;;10.80;99.90;;;;;;4988401;28;19930;-81
2022/09/29 19:17:25;;;;;;;;;;;10.80;99.90;;;;;;4964320;28;20076;-81
2022/09/29 19:19:51;;;;;;;;;;;10.70;99.90;;;;;;4993637;28;20004;-81
2022/09/29 19:24:52;;;;;;;;;;;10.70;99.90;;;;;;5016419;28;19980;-81
2022/09/29 19:27:37;;;;;;;;;;;10.70;99.90;;;;;;5009717;28;19977;-80
2022/09/29 19:30:04;;;;;;;;;;;10.60;99.90;;;;;;4991303;28;19929;-80
2022/09/29 19:32:33;;;;;;;;;;;10.60;99.90;;;;;;5007306;28;19932;-82
2022/09/29 19:35:07;;;;;;;;;;;10.60;99.90;;;;;;5007704;28;19925;-79
2022/09/29 19:37:33;;;;;;;;;;;10.50;99.90;;;;;;5021766;28;19935;-81
2022/09/29 19:39:59;;;;;;;;;;;10.50;99.90;;;;;;4990846;28;20014;-81
2022/09/29 19:42:25;;;;;;;;;;;10.50;99.90;;;;;;5004181;28;20380;-83
2022/09/29 19:44:51;;;;;;;;;;;10.40;99.90;;;;;;5002481;28;19929;-79
2022/09/29 19:47:17;;;;;;;;;;;10.40;99.90;;;;;;5004297;28;19929;-80
2022/09/29 19:49:43;;;;;;;;;;;10.40;99.90;;;;;;5026189;28;20017;-80
2022/09/29 19:52:09;;;;;;;;;;;10.40;99.90;;;;;;4961817;28;19968;-80
2022/09/29 19:54:37;;;;;;;;;;;10.40;99.90;;;;;;4988781;28;19976;-79
2022/09/29 19:57:06;;;;;;;;;;;10.50;99.90;;;;;;5003085;28;20651;-80
2022/09/29 19:59:33;;;;;;;;;;;10.30;99.90;;;;;;4992802;28;19976;-80
2022/09/29 20:02:00;;;;;;;;;;;10.30;99.90;;;;;;5015546;28;19952;-78
2022/09/29 20:04:27;;;;;;;;;;;10.30;99.90;;;;;;5007667;28;19968;-78
2022/09/29 20:06:53;;;;;;;;;;;10.30;99.90;;;;;;4996997;28;19976;-78
2022/09/29 20:09:18;;;;;;;;;;;10.30;99.90;;;;;;5010991;28;19972;-79
2022/09/29 20:11:48;;;;;;;;;;;10.30;99.90;;;;;;5005762;28;19932;-80
2022/09/29 20:14:17;;;;;;;;;;;10.30;99.90;;;;;;5008611;28;20306;-81
2022/09/29 20:16:44;;;;;;;;;;;10.30;99.90;;;;;;5008146;28;19929;-79
2022/09/29 20:19:13;;;;;;;;;;;10.30;99.90;;;;;;4991378;28;19971;-80
2022/09/29 20:21:42;;;;;;;;;;;10.30;99.90;;;;;;5022623;28;20118;-83
2022/09/29 20:24:09;;;;;;;;;;;10.30;99.90;;;;;;5003243;28;20276;-80
2022/09/29 20:26:36;;;;;;;;;;;10.30;99.90;;;;;;5018454;28;20335;-79
2022/09/29 20:29:03;;;;;;;;;;;10.20;99.90;;;;;;5007316;28;19929;-83
2022/09/29 20:31:33;;;;;;;;;;;10.20;99.90;;;;;;4991779;28;19929;-80
2022/09/29 20:33:59;;;;;;;;;;;10.20;99.90;;;;;;4998216;28;19944;-82
2022/09/29 20:36:25;;;;;;;;;;;10.10;99.90;;;;;;4988017;28;20280;-77
2022/09/29 20:38:51;;;;;;;;;;;10.10;99.90;;;;;;4987136;28;20023;-79
2022/09/29 20:41:17;;;;;;;;;;;10.10;99.90;;;;;;5007052;28;19996;-83
2022/09/29 20:43:46;;;;;;;;;;;10.00;99.90;;;;;;5006102;28;19933;-80
2022/09/29 20:46:12;;;;;;;;;;;10.00;99.90;;;;;;4988395;28;19936;-80
2022/09/29 20:48:38;;;;;;;;;;;10.00;99.90;;;;;;4979460;28;20278;-78
2022/09/29 20:51:06;;;;;;;;;;;10.00;99.90;;;;;;4974212;28;19972;-80
2022/09/29 20:53:33;;;;;;;;;;;10.00;99.90;;;;;;5019826;28;20024;-81
2022/09/29 20:56:03;;;;;;;;;;;10.00;99.90;;;;;;5006233;28;19925;-78
2022/09/29 20:58:30;;;;;;;;;;;10.00;99.90;;;;;;4989369;28;20004;-80
2022/09/29 21:01:11;;;;;;;;;;;10.00;99.90;;;;;;5007927;28;19929;-79
2022/09/29 21:03:37;;;;;;;;;;;10.00;99.90;;;;;;5020046;28;19933;-84
2022/09/29 21:06:03;;;;;;;;;;;9.90;99.90;;;;;;4988332;28;20055;-81
2022/09/29 21:08:29;;;;;;;;;;;9.90;99.90;;;;;;4985436;28;19974;-80
2022/09/29 21:11:02;;;;;;;;;;;9.90;99.90;;;;;;5005093;28;20003;-79
2022/09/29 21:13:28;;;;;;;;;;;9.90;99.90;;;;;;5005399;28;19922;-84
2022/09/29 21:15:55;;;;;;;;;;;9.90;99.90;;;;;;5006896;28;19940;-83
2022/09/29 21:18:21;;;;;;;;;;;9.90;99.90;;;;;;5002438;28;19932;-81
2022/09/29 21:20:48;;;;;;;;;;;9.90;99.90;;;;;;5001606;28;20248;-83
2022/09/29 21:23:14;;;;;;;;;;;9.90;99.90;;;;;;5003640;28;20016;-80
2022/09/29 21:25:41;;;;;;;;;;;9.90;99.90;;;;;;4989462;28;20019;-84
2022/09/29 21:28:08;;;;;;;;;;;9.90;99.90;;;;;;4999942;28;19933;-79
2022/09/29 21:30:34;;;;;;;;;;;9.90;99.90;;;;;;4990193;28;19925;-84
2022/09/29 21:33:00;;;;;;;;;;;9.90;99.90;;;;;;4990151;28;19925;-82
2022/09/29 21:35:26;;;;;;;;;;;9.90;99.90;;;;;;4989748;28;19932;-80
2022/09/29 21:37:53;;;;;;;;;;;9.90;99.90;;;;;;4982754;28;19936;-80
2022/09/29 21:40:19;;;;;;;;;;;9.80;99.90;;;;;;5019603;28;19940;-80
2022/09/29 21:42:45;;;;;;;;;;;9.80;99.90;;;;;;5001252;28;20012;-82
2022/09/29 21:45:11;;;;;;;;;;;9.90;99.90;;;;;;4987036;28;20068;-80
2022/09/29 21:50:21;;;;;;;;;;;9.90;99.90;;;;;;4986322;28;19933;-83